Time;durP1;ratioP1;P1;durP2;ratioP2;P2;SDS_P1;SDS_P2;PMS_P1;PMS_P2;Temp;Humidity;BMP_temperature;BMP_pressure;BME280_temperature;BME280_humidity;BME280_pressure;Samples;Min_cycle;Max_cycle;Signal;HPM_P1;HPM_P2
2021/12/24 00:02:16;;;;;;;67.30;28.73;;;;;;;-0.94;77.14;99948.91;4420746;32;20157;-66
2021/12/24 00:04:44;;;;;;;59.35;25.90;;;;;;;-0.92;78.67;99940.34;4420632;32;20126;-66
2021/12/24 00:07:14;;;;;;;67.12;25.00;;;;;;;-0.99;78.07;99948.75;4420664;32;20105;-66
2021/12/24 00:09:41;;;;;;;63.97;25.48;;;;;;;-0.88;77.14;99934.44;4420636;32;20189;-66
2021/12/24 00:12:17;;;;;;;61.90;25.73;;;;;;;-0.95;78.35;99942.88;4420604;32;20120;-66
2021/12/24 00:14:47;;;;;;;62.15;25.73;;;;;;;-0.97;78.56;99954.87;4420529;32;20082;-66
2021/12/24 00:17:22;;;;;;;59.92;23.33;;;;;;;-0.84;77.25;99951.78;4420676;32;20102;-66
2021/12/24 00:20:35;;;;;;;53.63;24.05;;;;;;;-0.90;77.72;99953.31;4420390;32;20112;-66
2021/12/24 00:36:27;;;;;;;64.65;25.15;;;;;;;-0.72;76.77;99883.97;4420428;32;20120;-66
2021/12/24 00:38:55;;;;;;;56.75;25.23;;;;;;;-0.84;78.00;99901.78;4420318;32;20098;-66
2021/12/24 00:41:22;;;;;;;64.70;26.83;;;;;;;-0.65;76.58;99893.63;4420191;32;20164;-66
2021/12/24 00:43:50;;;;;;;62.78;25.45;;;;;;;-0.81;78.24;99878.56;4420394;32;20094;-66
2021/12/24 00:46:17;;;;;;;54.42;23.95;;;;;;;-0.90;78.26;99880.91;4419480;32;20513;-66
2021/12/24 00:48:46;;;;;;;53.28;26.23;;;;;;;-0.83;78.33;99864.72;4420263;32;20421;-66
2021/12/24 00:51:29;;;;;;;59.45;26.08;;;;;;;-0.83;78.58;99856.94;4420267;32;20077;-66
2021/12/24 00:56:43;;;;;;;56.15;25.05;;;;;;;-0.85;79.26;99833.66;4420298;32;20093;-66
2021/12/24 00:59:10;;;;;;;57.55;25.85;;;;;;;-0.75;78.59;99839.91;4420238;32;20120;-66
2021/12/24 01:01:37;;;;;;;62.08;25.62;;;;;;;-0.91;79.89;99838.66;4419894;32;20089;-66
2021/12/24 01:04:05;;;;;;;57.10;25.25;;;;;;;-0.79;79.17;99835.50;4420160;32;20116;-66
2021/12/24 01:06:37;;;;;;;66.28;25.90;;;;;;;-0.88;79.44;99799.03;4420260;32;20094;-66
2021/12/24 01:09:04;;;;;;;62.53;26.05;;;;;;;-0.83;79.62;99802.63;4420060;32;20113;-66
2021/12/24 01:11:32;;;;;;;62.05;26.87;;;;;;;-0.93;80.52;99803.25;4419981;32;20090;-66
2021/12/24 01:14:03;;;;;;;64.10;27.65;;;;;;;-0.89;79.31;99803.34;4419904;32;20498;-66
2021/12/24 01:16:41;;;;;;;60.65;27.35;;;;;;;-0.97;81.19;99785.06;4419993;32;20132;-66
2021/12/24 01:19:16;;;;;;;57.72;26.85;;;;;;;-0.97;81.13;99763.50;4419897;32;20097;-66
2021/12/24 01:24:20;;;;;;;61.17;26.33;;;;;;;-0.97;81.05;99758.34;4419799;32;20081;-66
2021/12/24 01:41:03;;;;;;;56.97;24.98;;;;;;;-0.74;79.74;99764.06;4419939;32;20105;-66
2021/12/24 01:43:28;;;;;;;56.58;24.83;;;;;;;-0.62;78.71;99782.44;4419893;32;20085;-66
2021/12/24 01:45:58;;;;;;;58.20;26.35;;;;;;;-0.94;81.59;99742.91;4419820;32;20109;-66
2021/12/24 01:48:27;;;;;;;69.10;26.95;;;;;;;-0.90;80.62;99774.88;4419903;32;20096;-66
2021/12/24 01:50:54;;;;;;;62.75;27.45;;;;;;;-0.90;81.01;99742.13;4419743;32;20144;-66
2021/12/24 01:53:24;;;;;;;64.82;26.90;;;;;;;-0.62;79.61;99777.28;4419756;32;20085;-66
2021/12/24 01:55:57;;;;;;;64.03;26.08;;;;;;;-0.90;81.48;99759.34;4419550;32;20445;-66
2021/12/24 01:58:26;;;;;;;67.05;27.17;;;;;;;-0.96;82.41;99742.84;4420563;32;20089;-66
2021/12/24 02:00:56;;;;;;;54.80;25.60;;;;;;;-1.07;83.01;99736.53;4422190;32;20090;-66
2021/12/24 02:03:25;;;;;;;62.08;27.40;;;;;;;-0.99;82.80;99747.97;4422075;32;20116;-66
2021/12/24 02:05:53;;;;;;;71.32;27.52;;;;;;;-1.14;83.55;99739.81;4422013;32;20097;-66
2021/12/24 02:08:20;;;;;;;67.45;26.23;;;;;;;-1.02;82.05;99718.59;4422177;32;20192;-66
2021/12/24 02:10:50;;;;;;;64.53;25.23;;;;;;;-0.92;81.93;99722.22;4422107;32;20397;-66
2021/12/24 02:13:17;;;;;;;64.57;26.75;;;;;;;-0.91;81.98;99719.69;4422087;32;20108;-66
2021/12/24 02:29:40;;;;;;;60.17;25.58;;;;;;;-0.95;81.91;99686.84;4421526;32;20085;-66
2021/12/24 02:32:10;;;;;;;64.93;25.15;;;;;;;-0.75;80.71;99671.75;4421597;32;20114;-66
2021/12/24 02:34:42;;;;;;;56.70;25.58;;;;;;;-0.58;79.76;99703.19;4421740;32;20069;-66
2021/12/24 02:37:10;;;;;;;64.10;27.37;;;;;;;-0.81;81.28;99679.41;4421542;32;20108;-66
2021/12/24 02:39:37;;;;;;;63.58;27.33;;;;;;;-1.11;82.63;99656.31;4421509;32;20513;-66
2021/12/24 02:42:16;;;;;;;62.28;27.55;;;;;;;-1.04;82.56;99658.19;4421488;32;20557;-66
2021/12/24 02:44:45;;;;;;;66.10;26.23;;;;;;;-0.92;82.26;99642.06;4421502;32;20133;-66
2021/12/24 02:47:37;;;;;;;60.22;26.65;;;;;;;-0.94;82.21;99633.41;4421575;32;20124;-66
2021/12/24 02:55:39;;;;;;;61.53;27.05;;;;;;;-1.27;84.35;99595.63;4421338;31;20094;-66
2021/12/24 02:58:06;;;;;;;61.50;26.77;;;;;;;-1.28;83.98;99576.66;4421470;32;20123;-66
2021/12/24 03:00:34;;;;;;;61.45;26.77;;;;;;;-1.27;83.42;99593.94;4421093;32;20132;-66
2021/12/24 03:03:01;;;;;;;77.87;27.83;;;;;;;-1.49;84.84;99608.03;4421248;32;20106;-66
2021/12/24 03:05:28;;;;;;;68.12;28.08;;;;;;;-1.60;85.33;99606.91;4421409;32;20662;-66
2021/12/24 03:07:56;;;;;;;64.55;28.20;;;;;;;-1.53;84.44;99615.69;4421191;32;20173;-66
2021/12/24 03:10:24;;;;;;;70.60;28.42;;;;;;;-1.39;83.43;99623.75;4420773;32;20538;-66
2021/12/24 03:12:53;;;;;;;59.20;27.25;;;;;;;-1.47;84.88;99632.22;4421176;32;20223;-66
2021/12/24 03:15:25;;;;;;;69.43;27.52;;;;;;;-1.36;84.96;99639.34;4421367;32;20100;-66
2021/12/24 03:17:56;;;;;;;61.75;25.48;;;;;;;-1.37;85.17;99635.03;4421430;32;20103;-66
2021/12/24 03:20:32;;;;;;;67.35;26.90;;;;;;;-1.08;83.40;99643.44;4421117;32;20440;-66
2021/12/24 03:25:32;;;;;;;66.75;28.20;;;;;;;-0.99;82.66;99656.56;4421248;32;20101;-66
2021/12/24 03:28:00;;;;;;;62.03;26.17;;;;;;;-1.09;83.88;99667.56;4421008;32;20094;-66
2021/12/24 03:30:27;;;;;;;72.53;28.33;;;;;;;-1.22;86.05;99635.37;4421239;32;20462;-66
2021/12/24 03:32:55;;;;;;;62.08;27.95;;;;;;;-1.20;85.98;99644.06;4420801;32;20143;-66
2021/12/24 03:35:23;;;;;;;55.63;26.17;;;;;;;-1.14;85.79;99625.22;4421149;32;20448;-66
2021/12/24 03:37:50;;;;;;;55.97;24.98;;;;;;;-1.03;84.72;99628.91;4421201;32;20098;-66
2021/12/24 03:40:18;;;;;;;61.65;26.05;;;;;;;-1.10;84.71;99624.44;4420862;32;20169;-66
2021/12/24 03:42:45;;;;;;;62.70;26.15;;;;;;;-1.03;83.90;99634.94;4421089;32;20436;-66
2021/12/24 03:45:28;;;;;;;65.10;28.55;;;;;;;-1.09;84.61;99633.97;4420939;32;20093;-66
2021/12/24 03:48:02;;;;;;;60.20;26.85;;;;;;;-0.99;85.42;99625.53;4421228;32;20081;-66
2021/12/24 03:50:48;;;;;;;61.53;26.73;;;;;;;-0.94;84.55;99611.00;4421007;32;20124;-66
2021/12/24 03:56:03;;;;;;;55.80;26.48;;;;;;;-0.83;84.10;99611.25;4420978;32;20081;-66
2021/12/24 03:58:34;;;;;;;63.30;26.27;;;;;;;-0.70;82.94;99600.31;4421109;32;20533;-66
2021/12/24 04:01:05;;;;;;;63.50;27.87;;;;;;;-0.76;83.10;99593.28;4420876;32;20094;-66
2021/12/24 04:03:35;;;;;;;57.40;26.67;;;;;;;-0.75;83.48;99589.84;4420848;32;20097;-66
2021/12/24 04:06:05;;;;;;;59.45;27.55;;;;;;;-0.57;82.08;99594.53;4420807;32;20508;-66
2021/12/24 04:08:35;;;;;;;66.05;26.10;;;;;;;-0.53;83.17;99590.28;4420754;32;20537;-67
2021/12/24 04:11:04;;;;;;;65.60;26.50;;;;;;;-0.60;83.64;99583.25;4420684;32;20156;-66
2021/12/24 04:13:35;;;;;;;60.83;27.75;;;;;;;-0.62;83.42;99575.47;4420676;32;20546;-66
2021/12/24 04:16:03;;;;;;;71.40;29.45;;;;;;;-0.62;83.41;99565.13;4420839;32;20389;-66
2021/12/24 04:26:39;;;;;;;64.25;27.62;;;;;;;-0.96;85.17;99532.53;4420818;32;20089;-66
2021/12/24 04:29:08;;;;;;;71.55;29.15;;;;;;;-0.92;84.64;99529.16;4420586;32;20413;-66
2021/12/24 04:31:54;;;;;;;74.57;26.25;;;;;;;-1.07;85.42;99515.91;4420373;32;20161;-66
2021/12/24 04:34:33;;;;;;;69.78;27.90;;;;;;;-1.01;84.89;99531.56;4420544;32;20833;-66
2021/12/24 04:51:16;;;;;;;69.80;30.67;;;;;;;-1.21;86.88;99518.22;4420127;32;20149;-66
2021/12/24 05:04:35;;;;;;;73.43;30.50;;;;;;;-0.70;83.19;99520.13;4420101;32;20124;-66
2021/12/24 05:07:25;;;;;;;60.80;27.52;;;;;;;-0.92;84.29;99507.59;4420211;32;20164;-66
2021/12/24 05:09:52;;;;;;;62.22;28.10;;;;;;;-0.99;84.58;99506.59;4420215;32;20466;-66
2021/12/24 05:12:23;;;;;;;72.87;30.05;;;;;;;-1.20;85.94;99496.72;4419967;32;20501;-66
2021/12/24 05:14:50;;;;;;;66.47;28.23;;;;;;;-1.23;87.25;99501.81;4419886;32;20170;-66
2021/12/24 05:17:33;;;;;;;66.32;28.10;;;;;;;-1.27;86.78;99513.81;4420075;32;20733;-66
2021/12/24 05:22:52;;;;;;;60.45;25.02;;;;;;;-1.39;87.28;99503.19;4419905;32;20527;-66
2021/12/24 05:25:20;;;;;;;64.85;28.05;;;;;;;-1.28;86.23;99512.03;4419766;32;20128;-66
2021/12/24 05:27:47;;;;;;;68.25;29.17;;;;;;;-1.32;86.36;99510.22;4419766;32;20533;-66
2021/12/24 05:30:15;;;;;;;68.60;30.10;;;;;;;-1.28;86.15;99517.22;4419811;32;20109;-66
2021/12/24 05:32:42;;;;;;;66.87;28.38;;;;;;;-1.41;87.28;99524.66;4420914;32;20520;-66
2021/12/24 05:35:10;;;;;;;67.95;29.63;;;;;;;-1.40;87.43;99524.72;4421994;32;20731;-66
2021/12/24 05:37:39;;;;;;;64.30;29.40;;;;;;;-1.22;85.61;99514.75;4420357;32;20490;-66
2021/12/24 05:40:10;;;;;;;69.65;28.90;;;;;;;-1.23;86.11;99525.94;4420678;32;20140;-66
2021/12/24 05:42:37;;;;;;;68.55;29.52;;;;;;;-1.23;86.85;99528.53;4421993;32;20343;-66
2021/12/24 05:45:07;;;;;;;65.22;28.45;;;;;;;-1.39;87.74;99516.09;4422224;32;20517;-66
2021/12/24 05:47:36;;;;;;;62.65;26.92;;;;;;;-1.47;87.47;99513.34;4422238;32;20461;-66
2021/12/24 05:50:08;;;;;;;69.75;29.25;;;;;;;-1.37;86.39;99513.56;4422150;32;20176;-66
2021/12/24 05:52:47;;;;;;;63.95;28.20;;;;;;;-1.39;86.37;99515.25;4422155;32;20347;-66
2021/12/24 05:55:16;;;;;;;79.18;30.15;;;;;;;-1.09;85.12;99530.53;4421990;32;20157;-66
2021/12/24 05:57:43;;;;;;;61.20;27.95;;;;;;;-1.24;85.80;99539.72;4421953;32;20113;-66
2021/12/24 06:00:13;;;;;;;66.68;27.92;;;;;;;-1.20;85.65;99538.06;4422130;32;20504;-66
2021/12/24 06:02:41;;;;;;;63.10;27.40;;;;;;;-1.19;85.18;99531.19;4422109;32;20120;-66
2021/12/24 06:05:09;;;;;;;69.60;28.95;;;;;;;-1.15;85.41;99527.81;4421747;32;20093;-66
2021/12/24 06:07:38;;;;;;;70.60;29.73;;;;;;;-1.13;85.55;99529.63;4421730;32;20201;-66
2021/12/24 06:10:06;;;;;;;65.53;28.80;;;;;;;-1.07;86.36;99540.06;4421726;32;20459;-66
2021/12/24 06:12:34;;;;;;;80.57;32.13;;;;;;;-0.97;86.63;99542.00;4421627;32;20089;-66
2021/12/24 06:15:05;;;;;;;72.40;31.80;;;;;;;-1.07;87.35;99528.84;4421590;32;20105;-66
2021/12/24 06:17:34;;;;;;;68.30;28.67;;;;;;;-1.12;87.85;99525.31;4421550;32;20890;-66
2021/12/24 06:20:01;;;;;;;72.72;29.77;;;;;;;-0.98;86.38;99519.56;4421602;32;20546;-66
2021/12/24 06:22:28;;;;;;;77.37;29.85;;;;;;;-0.83;85.98;99516.41;4421828;32;20174;-66
2021/12/24 06:24:58;;;;;;;70.37;30.42;;;;;;;-0.84;85.95;99512.09;4421533;32;20128;-66
2021/12/24 06:27:25;;;;;;;68.55;29.33;;;;;;;-1.01;86.76;99518.66;4421637;32;20166;-66
2021/12/24 06:29:52;;;;;;;75.32;30.90;;;;;;;-1.03;86.90;99510.84;4421642;32;20461;-66
2021/12/24 06:32:24;;;;;;;77.85;32.13;;;;;;;-1.09;86.96;99504.69;4421736;32;20142;-66
2021/12/24 06:34:54;;;;;;;72.25;33.22;;;;;;;-1.14;87.11;99506.28;4421863;32;20093;-66
2021/12/24 06:37:22;;;;;;;74.70;31.45;;;;;;;-1.14;86.83;99512.34;4421529;32;20127;-66
2021/12/24 06:39:49;;;;;;;74.57;29.98;;;;;;;-1.17;87.65;99499.34;4421412;32;20107;-66
2021/12/24 06:42:17;;;;;;;83.75;32.08;;;;;;;-0.77;85.33;99507.91;4421455;32;20150;-66
2021/12/24 06:44:44;;;;;;;84.82;36.75;;;;;;;-0.82;85.98;99509.53;4420765;32;20166;-66
2021/12/24 06:47:11;;;;;;;87.37;34.88;;;;;;;-0.86;86.24;99494.81;4421337;32;20156;-66
2021/12/24 06:49:41;;;;;;;77.43;32.40;;;;;;;-0.99;87.48;99480.75;4421346;32;20114;-66
2021/12/24 06:52:08;;;;;;;77.90;32.55;;;;;;;-0.55;85.45;99506.59;4421388;32;20154;-66
2021/12/24 06:54:36;;;;;;;68.37;32.47;;;;;;;-0.76;86.29;99497.59;4421259;32;20548;-66
2021/12/24 06:57:12;;;;;;;75.70;31.23;;;;;;;-0.78;86.37;99496.72;4421236;32;20184;-66
2021/12/24 06:59:41;;;;;;;77.10;32.17;;;;;;;-0.25;83.98;99507.16;4421442;32;20107;-66
2021/12/24 07:02:08;;;;;;;67.53;29.83;;;;;;;-0.52;84.87;99499.78;4421332;32;20168;-66
2021/12/24 07:04:36;;;;;;;80.32;32.22;;;;;;;-0.30;83.81;99505.34;4421363;32;20153;-66
2021/12/24 07:07:03;;;;;;;70.78;30.58;;;;;;;-0.46;84.50;99503.31;4421247;32;20140;-66
2021/12/24 07:09:30;;;;;;;76.70;29.80;;;;;;;-0.40;84.19;99491.34;4419382;32;20434;-66
2021/12/24 07:11:58;;;;;;;63.38;28.58;;;;;;;-0.25;83.89;99503.69;4421103;32;20181;-66
2021/12/24 07:14:25;;;;;;;66.68;29.77;;;;;;;-0.16;83.53;99498.66;4421141;32;20409;-66
2021/12/24 07:16:52;;;;;;;76.93;29.60;;;;;;;-0.45;84.71;99502.47;4421422;32;20185;-66
2021/12/24 07:19:19;;;;;;;75.12;32.30;;;;;;;-0.45;84.52;99485.22;4421048;32;20086;-66
2021/12/24 07:21:47;;;;;;;81.65;33.47;;;;;;;-0.31;84.41;99490.66;4420981;32;20520;-66
2021/12/24 07:24:14;;;;;;;80.47;33.15;;;;;;;-0.14;83.62;99490.91;4421229;32;20180;-66
2021/12/24 07:26:41;;;;;;;92.43;37.78;;;;;;;-0.27;84.15;99495.91;4420983;32;20147;-66
2021/12/24 07:29:08;;;;;;;92.28;37.45;;;;;;;-0.02;82.86;99494.59;4421120;32;20073;-66
2021/12/24 07:31:35;;;;;;;105.43;42.53;;;;;;;-0.36;84.41;99500.03;4420800;32;20089;-66
2021/12/24 07:34:03;;;;;;;95.85;38.60;;;;;;;-0.19;83.81;99498.63;4420885;32;21001;-66
2021/12/24 07:36:30;;;;;;;85.03;36.97;;;;;;;-0.30;84.39;99489.81;4420900;32;20501;-66
2021/12/24 07:38:58;;;;;;;164.68;69.82;;;;;;;-0.13;83.87;99496.13;4420900;32;20082;-66
2021/12/24 07:41:26;;;;;;;110.45;45.80;;;;;;;-0.22;85.09;99497.69;4420778;32;20077;-66
2021/12/24 07:43:55;;;;;;;133.65;53.87;;;;;;;0.22;83.47;99514.84;4420814;32;20591;-66
2021/12/24 07:46:25;;;;;;;110.40;42.47;;;;;;;0.09;84.33;99501.66;4421046;32;20163;-66
2021/12/24 07:49:01;;;;;;;125.07;48.78;;;;;;;0.10;85.20;99516.34;4419389;32;20157;-66
2021/12/24 07:54:14;;;;;;;85.10;37.00;;;;;;;0.19;84.14;99494.06;4420782;32;20123;-66
2021/12/24 07:56:41;;;;;;;77.80;34.42;;;;;;;0.43;84.56;99477.16;4420666;31;20105;-66
2021/12/24 07:59:09;;;;;;;74.37;31.33;;;;;;;0.36;84.78;99489.13;4420588;32;20077;-66
2021/12/24 08:01:36;;;;;;;65.15;30.33;;;;;;;0.31;86.67;99469.19;4420712;32;20100;-66
2021/12/24 08:04:04;;;;;;;67.87;28.80;;;;;;;0.40;85.56;99469.31;4420613;32;20453;-66
2021/12/24 08:06:34;;;;;;;75.78;30.45;;;;;;;0.64;84.60;99450.66;4420890;32;20105;-66
2021/12/24 08:09:02;;;;;;;85.38;36.72;;;;;;;0.56;85.38;99454.84;4420562;32;20107;-66
2021/12/24 08:11:30;;;;;;;84.57;35.88;;;;;;;0.73;84.74;99455.94;4420583;32;20142;-66
2021/12/24 08:13:57;;;;;;;85.38;35.78;;;;;;;0.91;83.80;99469.13;4420516;32;20093;-66
2021/12/24 08:16:24;;;;;;;87.72;34.45;;;;;;;0.73;84.60;99470.62;4420635;32;20120;-66
2021/12/24 08:18:51;;;;;;;82.05;31.77;;;;;;;0.93;84.27;99471.75;4420873;32;20085;-66
2021/12/24 08:21:21;;;;;;;79.70;33.22;;;;;;;1.08;83.68;99469.31;4420593;32;20093;-66
2021/12/24 08:23:48;;;;;;;72.05;31.10;;;;;;;1.19;82.90;99469.44;4420508;32;20093;-66
2021/12/24 08:26:17;;;;;;;82.40;34.90;;;;;;;1.11;83.71;99458.13;4420390;32;20113;-66
2021/12/24 08:28:45;;;;;;;71.62;31.95;;;;;;;1.14;83.57;99468.53;4420433;32;20659;-66
2021/12/24 08:31:12;;;;;;;79.05;32.28;;;;;;;1.35;82.23;99458.38;4420380;32;20093;-66
2021/12/24 08:33:41;;;;;;;78.03;31.98;;;;;;;1.22;83.05;99442.66;4420221;32;20457;-66
2021/12/24 08:36:09;;;;;;;69.65;32.33;;;;;;;1.39;83.02;99444.59;4420331;32;20476;-66
2021/12/24 08:38:36;;;;;;;77.15;35.13;;;;;;;1.57;82.30;99441.28;4420492;32;20161;-66
2021/12/24 08:41:03;;;;;;;82.35;34.83;;;;;;;1.73;81.32;99447.47;4420199;32;20097;-66
2021/12/24 08:43:31;;;;;;;76.32;33.58;;;;;;;1.78;81.76;99451.00;4418387;32;20128;-66
2021/12/24 08:45:58;;;;;;;71.43;31.35;;;;;;;1.98;80.66;99445.06;4420198;32;20507;-66
2021/12/24 08:48:27;;;;;;;70.32;30.20;;;;;;;2.26;79.50;99447.03;4420123;32;20085;-66
2021/12/24 08:50:54;;;;;;;67.05;31.08;;;;;;;2.51;78.68;99436.75;4420121;32;20089;-66
2021/12/24 08:53:23;;;;;;;70.20;31.73;;;;;;;2.67;78.70;99435.13;4420337;32;20105;-66
2021/12/24 08:55:52;;;;;;;72.97;33.05;;;;;;;2.75;76.87;99429.06;4420255;32;20085;-66
2021/12/24 08:58:19;;;;;;;76.03;32.78;;;;;;;2.97;76.74;99444.75;4420204;32;20097;-66
2021/12/24 09:00:46;;;;;;;77.40;31.30;;;;;;;3.22;75.76;99433.59;4419988;32;20085;-65
2021/12/24 09:03:14;;;;;;;73.05;32.95;;;;;;;3.42;75.19;99440.56;4419964;32;20137;-66
2021/12/24 09:05:41;;;;;;;57.38;28.60;;;;;;;3.65;74.16;99431.03;4419953;32;20129;-66
2021/12/24 09:08:12;;;;;;;66.07;29.70;;;;;;;3.86;73.86;99424.97;4421991;32;20115;-66
2021/12/24 09:10:39;;;;;;;64.97;30.00;;;;;;;3.72;74.76;99435.38;4422457;32;20146;-66
2021/12/24 09:13:07;;;;;;;65.55;30.35;;;;;;;3.73;74.50;99429.31;4422487;32;20486;-66
2021/12/24 09:15:35;;;;;;;66.18;29.95;;;;;;;3.94;73.24;99428.44;4422164;32;20105;-66
2021/12/24 09:18:03;;;;;;;60.33;28.73;;;;;;;3.87;74.08;99426.69;4422244;32;20164;-66
2021/12/24 09:20:36;;;;;;;61.22;30.30;;;;;;;3.83;73.93;99431.03;4422309;32;20090;-65
2021/12/24 09:23:05;;;;;;;62.95;29.55;;;;;;;3.74;74.46;99428.44;4422257;32;20148;-66
2021/12/24 09:25:34;;;;;;;62.17;28.12;;;;;;;3.51;75.68;99435.38;4422190;32;20473;-66
2021/12/24 09:28:03;;;;;;;55.60;28.85;;;;;;;3.45;76.65;99430.16;4422128;32;20090;-66
2021/12/24 09:30:32;;;;;;;67.55;29.05;;;;;;;3.59;76.47;99433.62;4422066;32;20113;-66
2021/12/24 09:33:00;;;;;;;62.78;29.15;;;;;;;3.44;77.12;99425.81;4421999;32;20601;-66
2021/12/24 09:35:29;;;;;;;59.72;28.48;;;;;;;3.38;77.96;99413.63;4422085;32;20105;-66
2021/12/24 09:37:58;;;;;;;66.82;29.37;;;;;;;3.45;78.21;99397.16;4421846;32;20580;-66
2021/12/24 09:40:26;;;;;;;57.97;27.90;;;;;;;3.48;78.59;99385.88;4422295;32;20153;-66
2021/12/24 09:42:55;;;;;;;61.05;28.25;;;;;;;3.89;77.56;99391.09;4421965;32;20100;-66
2021/12/24 09:45:23;;;;;;;57.28;27.13;;;;;;;3.93;77.32;99378.94;4421860;32;20418;-66
2021/12/24 09:47:51;;;;;;;56.47;27.52;;;;;;;3.56;79.52;99373.72;4421891;32;20138;-66
2021/12/24 09:50:23;;;;;;;58.78;27.58;;;;;;;3.81;78.44;99370.22;4421887;32;20097;-66
2021/12/24 09:52:51;;;;;;;55.53;27.25;;;;;;;3.88;78.42;99367.63;4421933;32;20136;-66
2021/12/24 09:55:22;;;;;;;59.72;28.45;;;;;;;4.09;78.48;99354.56;4421897;32;20131;-66
2021/12/24 09:57:51;;;;;;;59.08;29.42;;;;;;;4.14;77.95;99341.53;4421983;32;20100;-66
2021/12/24 10:00:23;;;;;;;61.70;28.12;;;;;;;4.24;78.30;99338.91;4421790;32;20124;-66
2021/12/24 10:02:54;;;;;;;58.20;27.42;;;;;;;4.56;77.24;99350.94;4421928;32;20168;-66
2021/12/24 10:05:27;;;;;;;55.12;27.42;;;;;;;4.73;77.27;99340.41;4421811;32;20105;-66
2021/12/24 10:08:09;;;;;;;50.97;25.50;;;;;;;4.86;76.34;99334.25;4421858;32;20090;-66
2021/12/24 10:10:41;;;;;;;48.85;24.65;;;;;;;5.37;74.94;99336.53;4421928;32;20393;-66
2021/12/24 10:13:27;;;;;;;51.17;25.75;;;;;;;5.61;74.77;99319.78;4421640;32;20125;-66
2021/12/24 10:16:03;;;;;;;49.03;25.85;;;;;;;5.44;75.42;99317.31;4421925;32;20098;-66
2021/12/24 10:18:36;;;;;;;51.47;25.25;;;;;;;5.51;75.04;99313.75;4420940;32;20093;-66
2021/12/24 10:21:09;;;;;;;52.35;25.55;;;;;;;5.31;76.07;99313.94;4421751;32;20101;-66
2021/12/24 10:23:45;;;;;;;44.85;21.87;;;;;;;5.21;76.97;99314.91;4421611;32;20504;-66
2021/12/24 10:26:18;;;;;;;45.10;22.10;;;;;;;5.43;76.69;99316.44;4421797;32;20119;-66
2021/12/24 10:29:01;;;;;;;43.72;20.98;;;;;;;5.44;76.98;99302.53;4421468;32;20404;-66
2021/12/24 10:31:45;;;;;;;46.10;20.62;;;;;;;5.50;77.24;99298.97;4421532;32;20077;-66
2021/12/24 10:34:16;;;;;;;46.08;20.98;;;;;;;5.52;77.23;99305.06;4421638;32;20116;-66
2021/12/24 10:36:49;;;;;;;42.45;19.55;;;;;;;5.99;75.92;99302.00;4421484;32;20166;-66
2021/12/24 10:39:21;;;;;;;37.83;19.02;;;;;;;6.31;74.84;99299.91;4421564;32;20082;-66
2021/12/24 10:41:50;;;;;;;36.78;16.90;;;;;;;6.39;74.53;99292.84;4421372;32;20512;-66
2021/12/24 10:44:23;;;;;;;33.53;16.65;;;;;;;6.81;73.01;99294.00;4421453;32;20162;-66
2021/12/24 10:47:05;;;;;;;33.83;15.52;;;;;;;7.07;71.92;99298.91;4421368;32;20436;-66
2021/12/24 10:54:58;;;;;;;33.03;14.45;;;;;;;6.98;71.67;99304.25;4421254;32;20085;-66
2021/12/24 10:57:26;;;;;;;31.42;14.48;;;;;;;7.19;71.11;99296.06;4421558;32;20484;-66
2021/12/24 10:59:57;;;;;;;21.98;11.48;;;;;;;7.14;71.43;99297.91;4421311;32;20489;-66
2021/12/24 11:02:29;;;;;;;18.10;9.80;;;;;;;7.19;70.96;99296.06;4421452;32;20137;-66
2021/12/24 11:04:57;;;;;;;21.80;10.43;;;;;;;7.28;70.60;99278.47;4421251;32;20112;-66
2021/12/24 11:07:32;;;;;;;21.92;10.30;;;;;;;7.13;71.03;99285.69;4421394;32;20128;-66
2021/12/24 11:10:16;;;;;;;18.23;8.85;;;;;;;7.02;71.43;99281.50;4421667;32;20073;-66
2021/12/24 11:12:53;;;;;;;14.93;8.20;;;;;;;7.20;71.25;99291.69;4421343;32;20082;-66
2021/12/24 11:15:31;;;;;;;18.60;8.90;;;;;;;7.30;70.53;99287.19;4421350;32;20161;-66
2021/12/24 11:18:11;;;;;;;17.25;8.82;;;;;;;7.37;71.04;99280.94;4421138;32;20127;-66
2021/12/24 11:20:39;;;;;;;16.65;9.18;;;;;;;7.39;70.61;99284.41;4421177;32;20096;-66
2021/12/24 11:23:15;;;;;;;15.68;8.32;;;;;;;7.42;70.83;99280.00;4421113;32;20115;-66
2021/12/24 11:25:45;;;;;;;22.87;8.75;;;;;;;7.63;69.36;99273.50;4421169;32;20081;-66
2021/12/24 11:28:14;;;;;;;16.20;8.75;;;;;;;7.64;69.49;99277.84;4421001;32;20584;-66
2021/12/24 11:30:49;;;;;;;20.33;10.23;;;;;;;7.71;69.06;99275.13;4420881;32;20093;-66
2021/12/24 11:33:21;;;;;;;17.10;9.30;;;;;;;7.83;68.64;99272.28;4420790;32;20104;-66
2021/12/24 11:35:50;;;;;;;23.77;9.95;;;;;;;7.68;68.89;99272.56;4420978;32;20150;-66
2021/12/24 11:38:25;;;;;;;17.60;8.77;;;;;;;7.73;68.98;99266.31;4420907;32;20135;-66
2021/12/24 11:40:54;;;;;;;17.30;8.82;;;;;;;7.75;68.55;99261.06;4420907;32;20154;-66
2021/12/24 11:43:26;;;;;;;16.65;8.82;;;;;;;7.73;68.26;99255.84;4421166;32;20097;-66
2021/12/24 11:45:57;;;;;;;17.15;8.82;;;;;;;7.62;69.13;99253.41;4420730;32;20117;-66
2021/12/24 11:48:27;;;;;;;18.92;9.38;;;;;;;7.71;68.83;99241.06;4421042;32;20086;-66
2021/12/24 11:50:55;;;;;;;19.90;9.43;;;;;;;7.70;68.55;99248.03;4420980;32;20085;-66
2021/12/24 11:53:25;;;;;;;20.62;9.57;;;;;;;7.74;68.31;99247.09;4420751;32;20569;-66
2021/12/24 11:56:02;;;;;;;22.80;9.43;;;;;;;7.84;67.80;99250.38;4420802;32;20156;-66
2021/12/24 11:58:32;;;;;;;17.40;10.02;;;;;;;7.83;67.86;99257.41;4420874;32;20174;-66
2021/12/24 12:01:06;;;;;;;19.48;9.60;;;;;;;7.86;67.89;99254.72;4420774;32;20397;-66
2021/12/24 12:03:45;;;;;;;17.48;9.50;;;;;;;8.00;67.58;99256.22;4420701;32;20089;-66
2021/12/24 12:06:17;;;;;;;20.90;10.30;;;;;;;8.14;67.16;99244.56;4420742;32;20142;-66
2021/12/24 12:08:49;;;;;;;18.27;10.13;;;;;;;8.24;66.70;99242.62;4420676;32;20127;-66
2021/12/24 12:11:26;;;;;;;16.67;9.43;;;;;;;8.77;65.16;99242.38;4420726;32;20448;-66
2021/12/24 12:14:01;;;;;;;17.40;9.95;;;;;;;8.93;64.62;99245.50;4420829;32;20250;-66
2021/12/24 12:16:47;;;;;;;18.10;10.45;;;;;;;8.91;64.61;99249.94;4420749;32;20104;-66
2021/12/24 12:19:38;;;;;;;20.52;10.02;;;;;;;8.85;64.62;99249.16;4420771;32;20184;-66
2021/12/24 12:25:21;;;;;;;19.52;11.57;;;;;;;8.95;64.54;99241.09;4420673;32;20082;-66
2021/12/24 12:27:55;;;;;;;18.23;9.57;;;;;;;8.93;64.73;99256.88;4422804;31;20086;-66
2021/12/24 12:30:28;;;;;;;16.85;8.50;;;;;;;8.76;64.92;99249.41;4420653;32;20424;-66
2021/12/24 12:33:31;;;;;;;15.68;8.35;;;;;;;8.65;65.58;99251.38;4420493;32;20894;-66
2021/12/24 12:36:04;;;;;;;22.17;8.30;;;;;;;8.68;65.43;99253.09;4424103;32;20441;-66
2021/12/24 12:38:40;;;;;;;17.55;8.95;;;;;;;8.77;65.20;99253.75;4420486;32;20463;-66
2021/12/24 12:41:34;;;;;;;18.30;9.23;;;;;;;8.73;65.70;99257.34;4419910;32;20141;-66
2021/12/24 12:44:04;;;;;;;15.52;8.88;;;;;;;8.50;67.16;99251.72;4420429;32;20077;-66
2021/12/24 12:46:35;;;;;;;17.17;8.93;;;;;;;8.26;68.18;99250.44;4420416;32;20111;-66
2021/12/24 12:49:06;;;;;;;19.70;9.68;;;;;;;8.27;69.34;99250.44;4420238;32;20164;-66
2021/12/24 12:51:55;;;;;;;24.33;10.02;;;;;;;8.30;69.77;99241.59;4420285;32;20542;-66
2021/12/24 12:54:34;;;;;;;;;;;;;;;8.75;68.70;99241.53;4420585;32;20065;-66
2021/12/24 12:57:33;;;;;;;18.45;9.57;;;;;;;8.70;69.41;99243.41;4420258;32;20347;-66
2021/12/24 13:00:17;;;;;;;25.35;11.15;;;;;;;8.91;68.69;99245.56;4420136;32;20120;-66
2021/12/24 13:02:57;;;;;;;20.42;10.18;;;;;;;8.79;69.89;99245.81;4420145;32;20538;-66
2021/12/24 13:05:27;;;;;;;21.02;11.32;;;;;;;8.78;70.53;99244.97;4420320;32;20089;-66
2021/12/24 13:08:10;;;;;;;23.60;11.02;;;;;;;8.86;70.75;99226.38;4420061;32;20094;-66
2021/12/24 13:10:37;;;;;;;21.98;10.10;;;;;;;8.82;71.05;99241.34;4420212;32;20112;-66
2021/12/24 13:13:06;;;;;;;22.37;11.18;;;;;;;8.63;72.50;99242.69;4420187;32;20173;-66
2021/12/24 13:15:44;;;;;;;25.88;11.73;;;;;;;8.58;73.31;99236.66;4420041;32;20090;-67
2021/12/24 13:18:26;;;;;;;32.75;12.20;;;;;;;8.68;72.81;99250.44;4420005;32;20501;-66
2021/12/24 13:23:34;;;;;;;35.40;11.00;;;;;;;8.58;72.52;99268.16;4420055;32;20172;-66
2021/12/24 13:26:09;;;;;;;23.05;10.98;;;;;;;8.44;73.32;99273.72;4420139;32;20093;-66
2021/12/24 13:29:00;;;;;;;21.95;10.48;;;;;;;8.35;73.78;99273.88;4419949;32;20090;-67